createdAt,value
2019-03-08T00:02:13.933Z,98657.22
2019-03-08T00:04:45.217Z,98657.28
2019-03-08T00:07:16.519Z,98683.59
2019-03-08T00:09:47.817Z,98666.10
2019-03-08T00:12:19.078Z,98678.55
2019-03-08T00:14:50.364Z,98697.28
2019-03-08T00:17:21.598Z,98677.89
2019-03-08T00:19:52.832Z,98699.56
2019-03-08T00:22:24.123Z,98712.73
2019-03-08T00:24:55.390Z,98717.58
2019-03-08T00:27:26.673Z,98722.05
2019-03-08T00:29:58.034Z,98732.80
2019-03-08T00:32:29.332Z,98726.38
2019-03-08T00:35:00.635Z,98721.37
2019-03-08T00:37:31.909Z,98727.36
2019-03-08T00:40:03.185Z,98743.75
2019-03-08T00:42:34.492Z,98760.58
2019-03-08T00:45:06.207Z,98729.14
2019-03-08T00:47:37.646Z,98750.95
2019-03-08T00:50:09.252Z,98739.65
2019-03-08T00:52:40.574Z,98726.81
2019-03-08T00:55:11.958Z,98737.13
2019-03-08T00:57:43.258Z,98738.24
2019-03-08T01:00:16.819Z,98761.98
2019-03-08T01:02:48.206Z,98735.48
2019-03-08T01:05:20.036Z,98762.16
2019-03-08T01:07:51.340Z,98777.32
2019-03-08T01:10:23.261Z,98752.27
2019-03-08T01:12:54.862Z,98796.02
2019-03-08T01:15:26.197Z,98769.35
2019-03-08T01:17:57.541Z,98766.23
2019-03-08T01:20:28.849Z,98788.37
2019-03-08T01:23:00.114Z,98779.44
2019-03-08T01:25:31.409Z,98804.17
2019-03-08T01:28:09.270Z,98804.73
2019-03-08T01:30:41.245Z,98807.72
2019-03-08T01:33:12.830Z,98810.73
2019-03-08T01:35:44.475Z,98818.89
2019-03-08T01:38:15.758Z,98800.80
2019-03-08T01:40:47.100Z,98833.65
2019-03-08T01:43:18.443Z,98841.05
2019-03-08T01:45:49.760Z,98825.73
2019-03-08T01:48:21.139Z,98831.01
2019-03-08T01:50:52.452Z,98827.38
2019-03-08T01:53:23.740Z,98837.77
2019-03-08T01:55:55.061Z,98845.72
2019-03-08T01:58:26.611Z,98844.66
2019-03-08T02:00:57.972Z,98857.34
2019-03-08T02:03:29.282Z,98857.44
2019-03-08T02:06:00.524Z,98859.45
2019-03-08T02:08:31.790Z,98863.28
2019-03-08T02:11:03.278Z,98856.68
2019-03-08T02:13:34.569Z,98859.57
2019-03-08T02:16:05.915Z,98881.56
2019-03-08T02:18:37.195Z,98874.46
2019-03-08T02:21:08.521Z,98880.00
2019-03-08T02:23:39.925Z,98879.30
2019-03-08T02:26:11.213Z,98878.36
2019-03-08T02:28:42.477Z,98877.75
2019-03-08T02:31:13.733Z,98878.20
2019-03-08T02:33:45.205Z,98890.63
2019-03-08T02:36:16.506Z,98893.01
2019-03-08T02:38:47.795Z,98901.72
2019-03-08T02:41:19.051Z,98900.02
2019-03-08T02:43:50.270Z,98903.03
2019-03-08T02:46:24.846Z,98902.63
2019-03-08T02:48:56.084Z,98903.85
2019-03-08T02:51:27.455Z,98916.13
2019-03-08T02:53:58.744Z,98925.84
2019-03-08T02:56:30.060Z,98931.44
2019-03-08T02:59:01.758Z,98940.77
2019-03-08T03:01:33.049Z,98955.55
2019-03-08T03:04:04.594Z,98953.94
2019-03-08T03:06:35.858Z,98969.95
2019-03-08T03:09:08.070Z,98962.19
2019-03-08T03:11:39.334Z,98969.89
2019-03-08T03:14:10.576Z,98975.77
2019-03-08T03:16:41.855Z,98957.98
2019-03-08T03:19:13.121Z,98976.14
2019-03-08T03:21:44.351Z,98973.21
2019-03-08T03:24:15.753Z,98983.31
2019-03-08T03:26:47.002Z,98990.55
2019-03-08T03:29:18.252Z,98980.39
2019-03-08T03:31:49.516Z,98983.38
2019-03-08T03:34:20.775Z,98994.16
2019-03-08T03:36:52.218Z,98989.32
2019-03-08T03:39:23.564Z,99010.53
2019-03-08T03:41:54.827Z,99015.72
2019-03-08T03:44:26.107Z,99010.17
2019-03-08T03:46:57.572Z,99017.25
2019-03-08T03:49:28.792Z,99020.46
2019-03-08T03:52:00.063Z,99023.56
2019-03-08T03:54:31.327Z,99027.23
2019-03-08T03:57:02.587Z,99033.64
2019-03-08T03:59:34.005Z,99028.86
2019-03-08T04:02:05.382Z,99040.31
2019-03-08T04:04:36.624Z,99047.89
2019-03-08T04:07:07.855Z,99059.36
2019-03-08T04:09:39.102Z,99058.13
2019-03-08T04:12:10.455Z,99056.34
2019-03-08T04:14:41.740Z,99060.67
2019-03-08T04:17:13.011Z,99062.61
2019-03-08T04:19:44.269Z,99071.91
2019-03-08T04:22:15.559Z,99079.08
2019-03-08T04:24:46.854Z,99080.21
2019-03-08T04:27:18.124Z,99083.91
2019-03-08T04:29:49.370Z,99103.94
2019-03-08T04:32:20.659Z,99103.94
2019-03-08T04:34:51.939Z,99111.27
2019-03-08T04:37:23.228Z,99122.64
2019-03-08T04:39:54.487Z,99121.50
2019-03-08T04:42:25.794Z,99122.09
2019-03-08T04:44:57.197Z,99129.05
2019-03-08T04:47:28.513Z,99133.66
2019-03-08T04:49:59.895Z,99135.28
2019-03-08T04:52:31.395Z,99143.20
2019-03-08T04:55:02.694Z,99136.21
2019-03-08T04:57:33.954Z,99149.43
2019-03-08T05:00:06.156Z,99153.22
2019-03-08T05:02:37.460Z,99149.19
2019-03-08T05:05:08.887Z,99154.67
2019-03-08T05:07:40.142Z,99158.81
2019-03-08T05:10:13.954Z,99160.27
2019-03-08T05:12:45.426Z,99166.81
2019-03-08T05:15:17.191Z,99175.52
2019-03-08T05:17:48.505Z,99183.78
2019-03-08T05:20:19.756Z,99183.54
2019-03-08T05:22:51.087Z,99176.94
2019-03-08T05:25:22.361Z,99185.94
2019-03-08T05:27:53.645Z,99186.44
2019-03-08T05:30:24.935Z,99197.20
2019-03-08T05:32:56.228Z,99195.13
2019-03-08T05:35:27.558Z,99202.69
2019-03-08T05:37:58.854Z,99212.33
2019-03-08T05:40:30.191Z,99225.70
2019-03-08T05:43:01.480Z,99225.58
2019-03-08T05:45:32.815Z,99230.94
2019-03-08T05:48:04.082Z,99241.41
2019-03-08T05:50:35.433Z,99250.86
2019-03-08T05:53:06.736Z,99256.34
2019-03-08T05:55:38.042Z,99261.20
2019-03-08T05:58:09.282Z,99271.67
2019-03-08T06:00:40.650Z,99272.20
2019-03-08T06:03:11.918Z,99283.77
2019-03-08T06:05:43.222Z,99288.69
2019-03-08T06:08:14.506Z,99292.00
2019-03-08T06:10:45.838Z,99291.95
2019-03-08T06:13:17.088Z,99300.02
2019-03-08T06:15:48.393Z,99314.45
2019-03-08T06:18:19.927Z,99320.67
2019-03-08T06:20:51.201Z,99318.91
2019-03-08T06:23:22.595Z,99337.44
2019-03-08T06:25:54.152Z,99335.02
2019-03-08T06:28:25.394Z,99349.78
2019-03-08T06:30:56.696Z,99349.26
2019-03-08T06:33:27.955Z,99364.19
2019-03-08T06:35:59.178Z,99366.85
2019-03-08T06:38:30.458Z,99380.95
2019-03-08T06:41:01.756Z,99383.23
2019-03-08T06:43:33.027Z,99392.33
2019-03-08T06:46:04.334Z,99403.70
2019-03-08T06:48:35.680Z,99408.69
2019-03-08T06:51:06.964Z,99418.95
2019-03-08T06:53:38.234Z,99428.25
2019-03-08T06:56:09.560Z,99434.02
2019-03-08T06:58:49.299Z,99437.69
2019-03-08T07:01:24.082Z,99443.48
2019-03-08T07:03:55.389Z,99459.72
2019-03-08T07:06:26.686Z,99472.23
2019-03-08T07:08:57.990Z,99486.37
2019-03-08T07:11:29.449Z,99474.14
2019-03-08T07:14:00.740Z,99491.98
2019-03-08T07:16:32.067Z,99502.41
2019-03-08T07:19:03.386Z,99509.39
2019-03-08T07:21:42.334Z,99512.34
2019-03-08T07:24:22.977Z,99509.80
2019-03-08T07:27:21.977Z,99519.15
2019-03-08T07:30:12.170Z,99531.22
2019-03-08T07:33:01.052Z,99547.46
2019-03-08T07:35:51.230Z,99554.84
2019-03-08T07:38:44.197Z,99560.81
2019-03-08T07:41:46.277Z,99563.03
2019-03-08T07:44:48.281Z,99577.58
2019-03-08T07:47:34.426Z,99587.52
2019-03-08T07:50:23.908Z,99579.40
2019-03-08T07:53:15.686Z,99604.50
2019-03-08T07:55:59.241Z,99606.28
2019-03-08T07:58:51.834Z,99614.27
2019-03-08T08:01:57.219Z,99621.07
2019-03-08T08:04:39.598Z,99619.64
2019-03-08T08:07:17.264Z,99617.86
2019-03-08T08:09:59.374Z,99616.34
2019-03-08T08:12:47.943Z,99638.05
2019-03-08T08:15:47.140Z,99651.80
2019-03-08T08:18:28.867Z,99664.32
2019-03-08T08:21:19.097Z,99669.68
2019-03-08T08:24:08.306Z,99677.22
2019-03-08T08:26:52.938Z,99683.98
2019-03-08T08:29:48.970Z,99686.67
2019-03-08T08:32:37.848Z,99691.38
2019-03-08T08:35:27.089Z,99698.39
2019-03-08T08:38:26.063Z,99691.58
2019-03-08T08:41:05.272Z,99696.45
2019-03-08T08:44:04.640Z,99717.66
2019-03-08T08:46:53.787Z,99719.52
2019-03-08T08:49:36.234Z,99732.52
2019-03-08T08:52:35.362Z,99727.41
2019-03-08T08:58:01.157Z,99745.61
2019-03-08T09:00:44.703Z,99742.47
2019-03-08T09:03:43.445Z,99751.58
2019-03-08T09:06:28.451Z,99748.43
2019-03-08T09:09:12.773Z,99758.75
2019-03-08T09:11:52.815Z,99767.14
2019-03-08T09:14:30.626Z,99764.95
2019-03-08T09:17:20.816Z,99775.77
2019-03-08T09:20:11.426Z,99780.26
2019-03-08T09:22:50.316Z,99779.31
2019-03-08T09:25:26.402Z,99790.65
2019-03-08T09:28:14.258Z,99793.32
2019-03-08T09:30:51.846Z,99803.02
2019-03-08T09:33:27.281Z,99796.61
2019-03-08T09:36:08.456Z,99797.59
2019-03-08T09:38:56.508Z,99800.30
2019-03-08T09:41:33.979Z,99801.50
2019-03-08T09:44:26.996Z,99807.55
2019-03-08T09:47:15.096Z,99805.34
2019-03-08T09:49:58.107Z,99814.77
2019-03-08T09:52:48.324Z,99810.39
2019-03-08T09:55:26.611Z,99813.73
2019-03-08T09:58:03.780Z,99829.12
2019-03-08T10:01:03.069Z,99830.30
2019-03-08T10:03:49.035Z,99837.33
2019-03-08T10:06:49.923Z,99856.47
2019-03-08T10:09:49.027Z,99848.85
2019-03-08T10:12:36.877Z,99850.80
2019-03-08T10:15:26.859Z,99862.45
2019-03-08T10:18:26.153Z,99878.13
2019-03-08T10:21:14.738Z,99871.64
2019-03-08T10:23:58.628Z,99886.03
2019-03-08T10:26:51.863Z,99867.91
2019-03-08T10:29:37.439Z,99889.73
2019-03-08T10:32:36.843Z,99869.23
2019-03-08T10:35:23.274Z,99873.81
2019-03-08T10:38:04.305Z,99885.80
2019-03-08T10:40:49.051Z,99890.62
2019-03-08T10:43:30.833Z,99895.36
2019-03-08T10:46:19.543Z,99909.75
2019-03-08T10:49:14.647Z,99916.27
2019-03-08T10:52:17.617Z,99920.95
2019-03-08T10:55:10.262Z,99925.33
2019-03-08T10:58:18.738Z,99925.02
2019-03-08T11:01:02.135Z,99945.71
2019-03-08T11:04:05.936Z,99949.02
2019-03-08T11:06:51.472Z,99949.80
2019-03-08T11:09:44.588Z,99976.28
2019-03-08T11:12:33.305Z,99982.62
2019-03-08T11:15:24.722Z,99996.94
2019-03-08T11:18:16.336Z,100002.45
2019-03-08T11:21:11.460Z,100008.56
2019-03-08T11:24:19.572Z,100010.73
2019-03-08T11:27:15.612Z,100010.98
2019-03-08T11:30:11.652Z,100013.42
2019-03-08T11:33:00.294Z,100015.78
2019-03-08T11:35:36.961Z,100020.79
2019-03-08T11:38:17.620Z,100019.13
2019-03-08T11:41:14.615Z,100026.33
2019-03-08T11:44:10.065Z,100021.91
2019-03-08T11:46:54.597Z,100031.16
2019-03-08T11:49:44.070Z,100035.75
2019-03-08T11:52:31.466Z,100021.27
2019-03-08T11:55:20.308Z,100015.29
2019-03-08T11:58:22.677Z,100025.52
2019-03-08T12:01:11.592Z,100031.00
2019-03-08T12:04:00.160Z,100028.78
2019-03-08T12:06:48.990Z,100031.25
2019-03-08T12:09:46.020Z,100032.39
2019-03-08T12:12:38.915Z,100029.02
2019-03-08T12:15:30.209Z,100040.09
2019-03-08T12:18:09.239Z,100040.73
2019-03-08T12:21:11.315Z,100037.51
2019-03-08T12:23:59.939Z,100034.75
2019-03-08T12:26:48.899Z,100020.42
2019-03-08T12:29:37.917Z,100028.61
2019-03-08T12:32:37.031Z,100027.65
2019-03-08T12:35:27.680Z,100025.28
2019-03-08T12:38:17.817Z,100027.89
2019-03-08T12:41:00.082Z,100032.41
2019-03-08T12:43:50.266Z,100024.18
2019-03-08T12:46:38.339Z,100022.97
2019-03-08T12:49:31.561Z,100019.49
2019-03-08T12:52:16.429Z,100024.36
2019-03-08T12:55:05.051Z,100024.60
2019-03-08T12:57:47.315Z,100024.00
2019-03-08T13:00:43.624Z,100021.64
2019-03-08T13:03:24.625Z,100014.72
2019-03-08T13:06:13.804Z,100028.31
2019-03-08T13:09:03.752Z,100017.29
2019-03-08T13:11:35.068Z,100007.80
2019-03-08T13:14:06.445Z,100020.67
2019-03-08T13:16:37.714Z,100030.01
2019-03-08T13:19:08.961Z,100021.43
2019-03-08T13:21:40.214Z,100040.88
2019-03-08T13:24:11.780Z,100037.47
2019-03-08T13:26:43.138Z,100036.59
2019-03-08T13:29:14.405Z,100049.05
2019-03-08T13:31:45.736Z,100047.45
2019-03-08T13:34:17.025Z,100040.65
2019-03-08T13:36:48.531Z,100035.12
2019-03-08T13:39:19.846Z,100040.75
2019-03-08T13:41:51.212Z,100036.67
2019-03-08T13:44:22.496Z,100036.14
2019-03-08T13:46:53.808Z,100033.69
2019-03-08T13:49:25.305Z,100038.78
2019-03-08T13:51:56.736Z,100029.64
2019-03-08T13:54:28.015Z,100030.52
2019-03-08T13:56:59.301Z,100038.69
2019-03-08T13:59:30.733Z,100046.89
2019-03-08T14:02:02.092Z,100053.03
2019-03-08T14:04:33.453Z,100048.00
2019-03-08T14:07:04.799Z,100051.38
2019-03-08T14:09:36.101Z,100055.02
2019-03-08T14:12:07.392Z,100057.48
2019-03-08T14:14:38.779Z,100051.09
2019-03-08T14:17:10.105Z,100052.14
2019-03-08T14:19:42.826Z,100062.33
2019-03-08T14:22:14.155Z,100056.77
2019-03-08T14:24:45.990Z,100052.11
2019-03-08T14:27:17.320Z,100051.45
2019-03-08T14:29:48.677Z,100051.48
2019-03-08T14:32:25.221Z,100055.34
2019-03-08T14:34:55.039Z,100057.82
2019-03-08T14:37:26.384Z,100049.50
2019-03-08T14:39:57.703Z,100054.09
2019-03-08T14:42:40.483Z,100056.83
2019-03-08T14:45:35.175Z,100049.88
2019-03-08T14:48:09.615Z,100054.53
2019-03-08T14:50:39.558Z,100050.19
2019-03-08T14:53:10.855Z,100052.14
2019-03-08T14:55:42.156Z,100059.88
2019-03-08T14:58:13.483Z,100064.69
2019-03-08T15:00:44.777Z,100051.14
2019-03-08T15:03:16.184Z,100064.39
2019-03-08T15:05:51.088Z,100064.26
2019-03-08T15:08:20.624Z,100071.41
2019-03-08T15:10:51.933Z,100073.15
2019-03-08T15:13:24.143Z,100068.04
2019-03-08T15:15:58.093Z,100068.05
2019-03-08T15:18:30.857Z,100065.01
2019-03-08T15:21:02.208Z,100065.33
2019-03-08T15:23:33.456Z,100068.42
2019-03-08T15:26:04.887Z,100073.73
2019-03-08T15:28:36.165Z,100070.00
2019-03-08T15:31:07.446Z,100070.31
2019-03-08T15:33:38.734Z,100072.00
2019-03-08T15:36:10.023Z,100072.84
2019-03-08T15:38:42.987Z,100066.35
2019-03-08T15:41:14.242Z,100069.71
2019-03-08T15:43:46.879Z,100074.02
2019-03-08T15:46:22.002Z,100070.70
2019-03-08T15:48:53.132Z,100071.27
2019-03-08T15:51:25.321Z,100077.20
2019-03-08T15:53:56.921Z,100068.41
2019-03-08T15:56:28.270Z,100072.95
2019-03-08T15:58:59.538Z,100075.91
2019-03-08T16:01:30.855Z,100075.38
2019-03-08T16:04:02.154Z,100072.25
2019-03-08T16:06:33.423Z,100078.74
2019-03-08T16:09:05.872Z,100071.38
2019-03-08T16:11:37.276Z,100069.82
2019-03-08T16:14:09.258Z,100073.04
2019-03-08T16:16:40.656Z,100072.91
2019-03-08T16:19:11.944Z,100070.36
2019-03-08T16:21:46.918Z,100067.03
2019-03-08T16:24:16.147Z,100062.69
2019-03-08T16:26:47.451Z,100070.41
2019-03-08T16:29:18.775Z,100060.83
2019-03-08T16:32:08.674Z,100064.52
2019-03-08T16:34:39.767Z,100054.00
2019-03-08T16:37:19.273Z,100043.77
2019-03-08T16:40:07.861Z,100038.06
2019-03-08T16:43:15.856Z,100045.95
2019-03-08T16:46:08.154Z,100042.23
2019-03-08T16:48:59.031Z,100042.57
2019-03-08T16:51:47.132Z,100041.95
2019-03-08T16:54:43.483Z,100035.51
2019-03-08T16:57:26.356Z,100039.11
2019-03-08T17:00:10.974Z,100036.98
2019-03-08T17:03:00.453Z,100031.27
2019-03-08T17:05:50.604Z,100024.56
2019-03-08T17:08:34.838Z,100027.00
2019-03-08T17:11:32.680Z,100027.32
2019-03-08T17:14:29.006Z,100032.58
2019-03-08T17:17:22.013Z,100021.73
2019-03-08T17:19:59.243Z,100025.17
2019-03-08T17:22:58.678Z,100024.47
2019-03-08T17:25:37.827Z,100028.65
2019-03-08T17:28:26.835Z,100032.65
2019-03-08T17:31:10.576Z,100032.16
2019-03-08T17:34:00.801Z,100038.57
2019-03-08T17:36:41.311Z,100038.98
2019-03-08T17:39:20.406Z,100039.02
2019-03-08T17:42:28.705Z,100038.39
2019-03-08T17:45:33.816Z,100044.23
2019-03-08T17:48:22.673Z,100051.67
2019-03-08T17:51:12.938Z,100044.16
2019-03-08T17:53:54.386Z,100049.83
2019-03-08T17:56:50.514Z,100044.62
2019-03-08T17:59:30.703Z,100050.09
2019-03-08T18:02:20.928Z,100047.27
2019-03-08T18:05:15.692Z,100042.97
2019-03-08T18:08:06.378Z,100038.44
2019-03-08T18:11:02.435Z,100039.18
2019-03-08T18:13:55.436Z,100036.09
2019-03-08T18:16:54.780Z,100042.00
2019-03-08T18:19:44.970Z,100037.52
2019-03-08T18:22:37.899Z,100042.73
2019-03-08T18:25:22.611Z,100045.02
2019-03-08T18:28:04.342Z,100043.71
2019-03-08T18:30:46.293Z,100044.37
2019-03-08T18:33:22.905Z,100044.28
2019-03-08T18:36:13.102Z,100037.27
2019-03-08T18:39:15.387Z,100049.36
2019-03-08T18:42:04.484Z,100039.56
2019-03-08T18:45:06.701Z,100027.09
2019-03-08T18:47:51.409Z,100032.59
2019-03-08T18:50:41.643Z,100023.27
2019-03-08T18:53:26.204Z,100029.03
2019-03-08T18:56:34.571Z,100036.16
2019-03-08T18:59:36.982Z,100032.06
2019-03-08T19:02:23.646Z,100029.17
2019-03-08T19:05:02.209Z,100026.31
2019-03-08T19:07:55.484Z,100028.45
2019-03-08T19:10:48.446Z,100028.99
2019-03-08T19:13:53.710Z,100036.08
2019-03-08T19:16:40.226Z,100034.44
2019-03-08T19:19:33.494Z,100017.17
2019-03-08T19:22:26.434Z,100025.91
2019-03-08T19:25:11.614Z,100023.48
2019-03-08T19:28:10.889Z,100026.75
2019-03-08T19:31:13.056Z,100027.42
2019-03-08T19:34:02.187Z,100036.66
2019-03-08T19:36:55.358Z,100014.86
2019-03-08T19:39:37.656Z,100022.52
2019-03-08T19:42:23.864Z,100025.55
2019-03-08T19:45:11.468Z,100027.39
2019-03-08T19:48:00.548Z,100020.04
2019-03-08T19:50:49.460Z,100018.72
2019-03-08T19:53:27.038Z,100027.36
2019-03-08T19:56:07.580Z,100010.84
2019-03-08T19:59:09.924Z,100016.73
2019-03-08T20:01:58.808Z,100005.07
2019-03-08T20:04:55.057Z,100015.23
2019-03-08T20:07:43.714Z,100004.99
2019-03-08T20:10:32.560Z,100007.36
2019-03-08T20:13:22.777Z,99999.74
2019-03-08T20:16:18.739Z,99997.23
2019-03-08T20:18:58.690Z,99989.64
2019-03-08T20:22:07.065Z,99993.03
2019-03-08T20:24:53.667Z,99990.48
2019-03-08T20:27:47.029Z,100001.70
2019-03-08T20:30:43.451Z,99982.34
2019-03-08T20:33:32.134Z,99974.98
2019-03-08T20:36:21.155Z,99978.28
2019-03-08T20:39:11.347Z,99979.38
2019-03-08T20:41:59.818Z,99986.09
2019-03-08T20:44:56.084Z,99967.63
2019-03-08T20:47:29.938Z,99965.67
2019-03-08T20:50:01.276Z,99964.09
2019-03-08T20:52:32.586Z,99954.19
2019-03-08T20:55:04.139Z,99960.27
2019-03-08T20:57:35.419Z,99958.77
2019-03-08T21:00:07.903Z,99953.70
2019-03-08T21:02:39.170Z,99959.37
2019-03-08T21:05:10.634Z,99956.41
2019-03-08T21:07:41.964Z,99945.64
2019-03-08T21:10:13.385Z,99942.27
2019-03-08T21:12:44.681Z,99948.13
2019-03-08T21:15:24.984Z,99942.61
2019-03-08T21:17:49.097Z,99935.84
2019-03-08T21:20:20.365Z,99935.27
2019-03-08T21:22:51.659Z,99921.81
2019-03-08T21:25:22.971Z,99919.46
2019-03-08T21:27:54.310Z,99915.90
2019-03-08T21:30:25.604Z,99919.33
2019-03-08T21:32:56.994Z,99925.02
2019-03-08T21:35:28.496Z,99927.73
2019-03-08T21:38:00.710Z,99908.23
2019-03-08T21:40:32.035Z,99924.51
2019-03-08T21:43:03.323Z,99906.43
2019-03-08T21:45:34.632Z,99911.23
2019-03-08T21:48:05.945Z,99908.47
2019-03-08T21:50:37.262Z,99898.78
2019-03-08T21:53:08.541Z,99891.28
2019-03-08T21:55:39.862Z,99875.79
2019-03-08T21:58:11.399Z,99868.85
2019-03-08T22:00:42.685Z,99867.46
2019-03-08T22:03:13.971Z,99871.27
2019-03-08T22:05:45.235Z,99860.05
2019-03-08T22:08:17.842Z,99870.20
2019-03-08T22:11:08.200Z,99861.03
2019-03-08T22:13:39.459Z,99845.75
2019-03-08T22:16:10.787Z,99827.75
2019-03-08T22:18:42.201Z,99818.91
2019-03-08T22:21:13.428Z,99833.47
2019-03-08T22:23:44.715Z,99817.45
2019-03-08T22:26:16.091Z,99815.09
2019-03-08T22:28:47.357Z,99809.57
2019-03-08T22:31:18.613Z,99813.86
2019-03-08T22:33:49.920Z,99800.73
2019-03-08T22:36:21.168Z,99803.41
2019-03-08T22:38:52.437Z,99792.66
2019-03-08T22:41:23.734Z,99796.98
2019-03-08T22:43:55.012Z,99797.43
2019-03-08T22:46:26.321Z,99789.36
2019-03-08T22:48:57.591Z,99798.04
2019-03-08T22:51:29.148Z,99784.99
2019-03-08T22:54:00.429Z,99785.16
2019-03-08T22:56:31.719Z,99774.66
2019-03-08T22:59:03.013Z,99777.17
2019-03-08T23:01:43.988Z,99767.52
2019-03-08T23:04:15.286Z,99760.26
2019-03-08T23:06:46.562Z,99768.13
2019-03-08T23:09:19.791Z,99754.48
2019-03-08T23:11:51.091Z,99756.32
2019-03-08T23:14:22.386Z,99753.20
2019-03-08T23:16:53.672Z,99771.91
2019-03-08T23:19:24.997Z,99765.41
2019-03-08T23:21:56.260Z,99751.05
2019-03-08T23:24:27.535Z,99747.11
2019-03-08T23:27:21.374Z,99740.35
2019-03-08T23:29:55.902Z,99745.02
2019-03-08T23:32:32.670Z,99731.91
2019-03-08T23:35:03.917Z,99738.25
2019-03-08T23:37:35.197Z,99731.11
2019-03-08T23:40:07.107Z,99702.87
2019-03-08T23:42:38.373Z,99710.34
2019-03-08T23:45:10.183Z,99704.88
2019-03-08T23:47:41.466Z,99701.09
2019-03-08T23:50:12.705Z,99689.67
2019-03-08T23:52:44.179Z,99685.77
2019-03-08T23:55:15.471Z,99679.66
2019-03-08T23:57:46.714Z,99670.81
